Time;durP1;ratioP1;P1;durP2;ratioP2;P2;SDS_P1;SDS_P2;PMS_P1;PMS_P2;Temp;Humidity;BMP_temperature;BMP_pressure;BME280_temperature;BME280_humidity;BME280_pressure;Samples;Min_cycle;Max_cycle;Signal;HPM_P1;HPM_P2
2022/12/27 00:00:27;;;;;;;8.77;2.53;;;7.90;99.90;;;;;;5074593;28;20436;-56
2022/12/27 00:02:54;;;;;;;14.33;2.50;;;8.30;99.90;;;;;;5075288;28;20456;-56
2022/12/27 00:05:21;;;;;;;13.33;4.97;;;8.10;99.90;;;;;;5075364;28;20473;-55
2022/12/27 00:07:48;;;;;;;8.23;2.13;;;7.90;99.90;;;;;;5075050;28;20469;-56
2022/12/27 00:10:14;;;;;;;14.20;2.27;;;7.90;99.90;;;;;;5074546;28;20438;-56
2022/12/27 00:12:41;;;;;;;6.17;2.50;;;7.90;99.90;;;;;;5075126;28;20453;-55
2022/12/27 00:15:09;;;;;;;9.40;2.47;;;8.00;99.90;;;;;;5075130;28;20415;-56
2022/12/27 00:17:37;;;;;;;12.43;2.60;;;7.80;99.90;;;;;;5075007;28;20990;-56
2022/12/27 00:20:04;;;;;;;7.60;2.40;;;7.60;99.90;;;;;;5074136;28;20924;-56
2022/12/27 00:22:31;;;;;;;12.50;2.90;;;7.60;99.90;;;;;;5074826;28;20983;-56
2022/12/27 00:24:57;;;;;;;7.90;2.57;;;7.00;99.90;;;;;;5073514;28;20442;-56
2022/12/27 00:27:24;;;;;;;8.90;2.93;;;7.50;99.90;;;;;;5074639;28;20481;-56
2022/12/27 00:29:51;;;;;;;11.03;2.97;;;7.40;99.90;;;;;;5074171;28;20469;-57
2022/12/27 00:32:17;;;;;;;12.70;2.63;;;7.30;99.90;;;;;;5074638;28;20461;-56
2022/12/27 00:34:45;;;;;;;11.93;2.40;;;7.30;99.90;;;;;;5074509;28;20429;-56
2022/12/27 00:37:12;;;;;;;15.10;2.70;;;7.40;99.90;;;;;;5074300;28;20409;-57
2022/12/27 00:39:38;;;;;;;12.53;2.53;;;7.40;99.90;;;;;;5073815;28;20430;-56
2022/12/27 00:42:05;;;;;;;7.37;2.53;;;6.90;99.90;;;;;;5074466;28;20465;-56
2022/12/27 00:44:32;;;;;;;9.87;2.70;;;7.30;99.90;;;;;;5074583;28;20845;-56
2022/12/27 00:46:58;;;;;;;8.20;2.40;;;7.30;99.90;;;;;;5074297;28;20476;-56
2022/12/27 00:49:25;;;;;;;10.80;2.60;;;7.20;99.90;;;;;;5073703;28;20434;-57
2022/12/27 00:51:53;;;;;;;10.43;2.13;;;7.30;99.90;;;;;;5074219;28;20460;-56
2022/12/27 00:54:20;;;;;;;9.83;2.63;;;7.30;99.90;;;;;;5074229;28;20532;-57
2022/12/27 00:56:47;;;;;;;6.60;2.13;;;7.30;99.90;;;;;;5074081;28;20905;-57
2022/12/27 00:59:13;;;;;;;10.27;2.80;;;7.10;99.90;;;;;;5073406;28;20905;-57
2022/12/27 01:01:40;;;;;;;9.60;2.50;;;7.20;99.90;;;;;;5073974;28;20446;-56
2022/12/27 01:04:07;;;;;;;17.80;2.47;;;7.20;99.90;;;;;;5073808;28;20735;-56
2022/12/27 01:06:35;;;;;;;7.47;2.50;;;7.50;99.90;;;;;;5074015;28;20433;-56
2022/12/27 01:09:04;;;;;;;12.87;2.30;;;7.00;99.90;;;;;;5073650;28;20430;-57
2022/12/27 01:11:31;;;;;;;7.20;2.53;;;7.00;99.90;;;;;;5073870;28;20455;-56
2022/12/27 01:14:00;;;;;;;8.63;2.70;;;6.70;99.90;;;;;;5073992;28;20472;-56
2022/12/27 01:16:28;;;;;;;7.20;2.27;;;6.80;99.90;;;;;;5073948;28;20925;-56
2022/12/27 01:18:55;;;;;;;6.67;2.00;;;6.80;99.90;;;;;;5072992;28;20440;-56
2022/12/27 01:21:24;;;;;;;12.57;2.10;;;6.70;99.90;;;;;;5073838;28;20414;-56
2022/12/27 01:23:51;;;;;;;9.20;1.83;;;6.30;99.90;;;;;;5073711;28;20445;-56
2022/12/27 01:26:20;;;;;;;6.00;2.03;;;6.60;99.90;;;;;;5073805;28;20506;-56
2022/12/27 01:28:48;;;;;;;7.43;2.43;;;6.80;99.90;;;;;;5072844;28;20479;-56
2022/12/27 01:31:17;;;;;;;8.13;2.70;;;6.70;99.90;;;;;;5073469;28;20426;-57
2022/12/27 01:33:44;;;;;;;10.37;2.23;;;6.60;99.90;;;;;;5073494;28;20424;-57
2022/12/27 01:36:12;;;;;;;14.47;2.50;;;6.40;99.90;;;;;;5072276;28;20422;-56
2022/12/27 01:38:41;;;;;;;5.70;1.70;;;6.70;99.90;;;;;;5072870;28;20868;-57
2022/12/27 01:43:54;;;;;;;8.40;2.33;;;6.40;99.90;;;;;;5073092;28;20433;-57
2022/12/27 01:46:21;;;;;;;8.73;2.37;;;6.40;99.90;;;;;;5073186;28;20429;-56
2022/12/27 01:48:48;;;;;;;9.73;2.37;;;6.70;99.90;;;;;;5071710;28;20457;-56
2022/12/27 01:51:16;;;;;;;9.73;2.50;;;6.80;99.90;;;;;;5073307;28;20446;-57
2022/12/27 01:53:48;;;;;;;7.03;2.60;;;6.30;99.90;;;;;;5073077;28;20451;-57
2022/12/27 01:56:18;;;;;;;8.50;2.73;;;7.10;99.90;;;;;;5073016;28;20774;-57
2022/12/27 01:58:49;;;;;;;9.23;2.10;;;6.30;99.90;;;;;;5072321;28;21067;-57
2022/12/27 02:01:22;;;;;;;7.30;2.20;;;6.30;99.90;;;;;;5072808;28;20407;-56
2022/12/27 02:03:51;;;;;;;6.87;2.60;;;6.90;99.90;;;;;;5073240;28;20821;-57
2022/12/27 02:06:20;;;;;;;10.97;2.10;;;5.90;99.90;;;;;;5072869;28;20891;-55
2022/12/27 02:08:52;;;;;;;9.87;2.83;;;6.30;99.90;;;;;;5071974;28;20479;-56
2022/12/27 02:11:49;;;;;;;7.93;2.50;;;6.10;99.90;;;;;;5072817;28;20407;-56
2022/12/27 02:14:11;;;;;;;8.93;1.87;;;6.30;99.90;;;;;;5072690;28;20418;-57
2022/12/27 02:16:39;;;;;;;11.07;2.13;;;6.40;99.90;;;;;;5072681;28;20432;-56
2022/12/27 02:19:13;;;;;;;8.30;2.30;;;6.20;99.90;;;;;;5072078;28;20415;-56
2022/12/27 02:22:01;;;;;;;11.53;3.30;;;6.00;99.90;;;;;;5072505;28;20467;-57
2022/12/27 02:24:54;;;;;;;4.43;1.87;;;6.40;99.90;;;;;;5072593;28;20422;-57
2022/12/27 02:27:38;;;;;;;4.87;1.63;;;6.20;99.90;;;;;;5072415;28;20475;-57
2022/12/27 02:30:07;;;;;;;11.93;4.07;;;6.30;99.90;;;;;;5071796;28;20434;-56
2022/12/27 02:32:39;;;;;;;14.30;3.47;;;6.30;99.90;;;;;;5072148;28;20470;-56
2022/12/27 02:35:16;;;;;;;8.10;2.33;;;6.80;99.90;;;;;;5072468;28;20770;-55
2022/12/27 02:37:48;;;;;;;8.80;3.10;;;6.70;99.90;;;;;;5072284;28;20430;-55
2022/12/27 02:54:52;;;;;;;11.27;2.83;;;6.00;99.90;;;;;;5070908;28;20447;-55
2022/12/27 02:57:28;;;;;;;12.60;3.07;;;6.10;99.90;;;;;;5070844;28;20425;-55
2022/12/27 03:03:23;;;;;;;8.13;2.70;;;6.20;99.90;;;;;;5071869;28;20429;-55
2022/12/27 03:15:53;;;;;;;19.63;3.13;;;5.90;99.90;;;;;;5071209;28;20445;-55
2022/12/27 03:17:50;;;;;;;5.00;2.00;;;5.80;99.90;;;;;;5086636;22;20471;-52
2022/12/27 03:25:47;;;;;;;5.73;1.80;;;5.80;99.90;;;;;;5019423;28;20868;-54
2022/12/27 03:33:58;;;;;;;11.03;2.17;;;5.70;99.90;;;;;;5031025;28;20443;-53
2022/12/27 03:39:20;;;;;;;13.33;2.30;;;5.70;99.90;;;;;;5030431;28;20469;-53
2022/12/27 03:44:35;;;;;;;8.63;2.33;;;5.50;99.90;;;;;;5031058;28;20439;-53
2022/12/27 03:47:06;;;;;;;10.00;2.20;;;5.50;99.90;;;;;;5031153;28;20981;-53
2022/12/27 03:49:39;;;;;;;9.33;2.80;;;5.60;99.90;;;;;;5030592;28;20447;-53
2022/12/27 03:52:11;;;;;;;10.77;2.13;;;5.50;99.90;;;;;;5031267;28;20809;-54
2022/12/27 03:54:40;;;;;;;8.13;2.10;;;5.70;99.90;;;;;;5031153;28;20994;-53
2022/12/27 03:57:10;;;;;;;13.33;2.20;;;5.60;99.90;;;;;;5031149;28;20441;-54
2022/12/27 03:59:37;;;;;;;9.83;2.07;;;5.60;99.90;;;;;;5030044;28;20502;-53
2022/12/27 04:02:05;;;;;;;10.60;2.80;;;5.60;99.90;;;;;;5031340;28;20443;-53
2022/12/27 04:04:31;;;;;;;8.77;2.40;;;5.50;99.90;;;;;;5031216;28;20438;-53
2022/12/27 04:06:58;;;;;;;8.87;2.43;;;5.40;99.90;;;;;;5030886;28;20440;-53
2022/12/27 04:36:52;;;;;;;9.20;2.33;;;5.40;99.90;;;;;;5033886;28;20499;-54
2022/12/27 04:39:19;;;;;;;15.93;2.83;;;5.40;99.90;;;;;;5033160;28;20427;-55
2022/12/27 04:55:45;;;;;;;8.37;2.67;;;5.30;99.90;;;;;;5033895;28;20437;-54
2022/12/27 04:58:13;;;;;;;12.52;2.80;;;5.30;99.90;;;;;;5033731;28;20427;-54
2022/12/27 05:03:24;;;;;;;6.93;3.30;;;5.30;99.90;;;;;;5033494;28;20523;-54
2022/12/27 05:05:52;;;;;;;11.83;3.00;;;5.40;99.90;;;;;;5033454;28;20447;-55
2022/12/27 05:14:01;;;;;;;11.70;3.73;;;5.50;99.90;;;;;;5033187;28;20403;-54
2022/12/27 05:16:29;;;;;;;6.87;3.10;;;5.20;99.90;;;;;;5033323;28;20445;-54
2022/12/27 05:18:56;;;;;;;11.87;4.17;;;5.40;99.90;;;;;;5032322;28;20834;-53
2022/12/27 05:21:24;;;;;;;13.37;4.70;;;5.40;99.90;;;;;;5033082;28;20450;-54
2022/12/27 05:26:37;;;;;;;9.77;2.70;;;5.20;99.90;;;;;;5033057;28;20472;-54
2022/12/27 05:29:06;;;;;;;9.17;3.10;;;5.30;99.90;;;;;;5032013;28;20479;-53
2022/12/27 05:31:34;;;;;;;14.53;2.90;;;5.40;99.90;;;;;;5032925;28;20519;-53
2022/12/27 05:34:00;;;;;;;13.63;3.23;;;5.30;99.90;;;;;;5032842;28;20435;-54
2022/12/27 05:36:27;;;;;;;6.10;2.83;;;5.30;99.90;;;;;;5032900;28;20433;-54
2022/12/27 05:38:54;;;;;;;6.20;3.00;;;5.00;99.90;;;;;;5031937;28;20480;-54
2022/12/27 05:41:21;;;;;;;6.53;3.27;;;5.50;99.90;;;;;;5031303;28;20429;-54
2022/12/27 05:43:47;;;;;;;14.73;3.90;;;5.40;99.90;;;;;;5032861;28;20442;-54
2022/12/27 05:46:16;;;;;;;7.13;2.80;;;5.80;99.90;;;;;;5032793;28;20923;-52
2022/12/27 05:48:43;;;;;;;7.30;2.43;;;5.70;99.90;;;;;;5032217;28;20480;-52
2022/12/27 05:51:12;;;;;;;11.17;2.53;;;5.70;99.90;;;;;;5032570;28;20949;-51
2022/12/27 05:53:39;;;;;;;11.33;2.83;;;5.70;99.90;;;;;;5032501;28;20949;-53
2022/12/27 05:56:06;;;;;;;9.50;2.50;;;5.60;99.90;;;;;;5032550;28;20441;-53
2022/12/27 05:58:34;;;;;;;7.67;2.43;;;5.70;99.90;;;;;;5031666;28;20433;-53
2022/12/27 06:01:01;;;;;;;7.80;2.30;;;5.70;99.90;;;;;;5032380;28;20527;-52
2022/12/27 06:03:29;;;;;;;6.00;2.80;;;5.70;99.90;;;;;;5032320;28;20445;-54
2022/12/27 06:06:01;;;;;;;12.70;2.80;;;5.50;99.90;;;;;;5032193;28;20436;-53
2022/12/27 06:08:28;;;;;;;12.87;2.73;;;5.60;99.90;;;;;;5031522;28;20508;-53
2022/12/27 06:11:02;;;;;;;9.33;2.50;;;5.00;99.90;;;;;;5032436;28;20866;-53
2022/12/27 06:13:29;;;;;;;9.90;2.80;;;5.50;99.90;;;;;;5032201;28;20515;-54
2022/12/27 06:15:59;;;;;;;10.07;2.90;;;5.60;99.90;;;;;;5032154;28;20547;-54
2022/12/27 06:18:25;;;;;;;9.77;2.70;;;5.60;99.90;;;;;;5031366;28;20484;-53
2022/12/27 06:20:53;;;;;;;10.03;2.37;;;5.30;99.90;;;;;;5030628;28;20457;-54
2022/12/27 06:23:20;;;;;;;5.47;2.10;;;5.40;99.90;;;;;;5032132;28;20448;-53
2022/12/27 06:25:46;;;;;;;8.10;2.90;;;5.40;99.90;;;;;;5031895;28;20411;-52
2022/12/27 06:28:13;;;;;;;10.60;2.53;;;5.40;99.90;;;;;;5031976;28;20828;-54
2022/12/27 06:30:39;;;;;;;6.17;2.50;;;5.40;99.90;;;;;;5031147;28;20780;-52
2022/12/27 06:33:06;;;;;;;11.90;3.07;;;5.20;99.90;;;;;;5031745;28;20411;-53
2022/12/27 06:35:32;;;;;;;15.80;2.87;;;5.30;99.90;;;;;;5031286;28;20437;-54
2022/12/27 06:38:00;;;;;;;4.93;2.17;;;5.00;99.90;;;;;;5031650;28;20438;-54
2022/12/27 06:40:27;;;;;;;6.17;1.97;;;5.40;99.90;;;;;;5030859;28;20923;-53
2022/12/27 06:42:54;;;;;;;10.10;3.20;;;5.40;99.90;;;;;;5031627;28;20494;-53
2022/12/27 06:45:20;;;;;;;12.77;3.43;;;4.80;99.90;;;;;;5032146;28;20430;-54
2022/12/27 06:47:47;;;;;;;9.00;2.70;;;5.10;99.90;;;;;;5031394;28;20438;-54
2022/12/27 06:50:13;;;;;;;9.83;2.90;;;5.30;99.90;;;;;;5030930;28;20418;-53
2022/12/27 06:52:40;;;;;;;6.97;2.50;;;5.30;99.90;;;;;;5031705;28;20483;-53
2022/12/27 06:55:08;;;;;;;7.80;3.00;;;5.20;99.90;;;;;;5031441;28;20440;-54
2022/12/27 06:57:34;;;;;;;8.90;3.20;;;5.10;99.90;;;;;;5031317;28;20419;-53
2022/12/27 07:00:01;;;;;;;5.63;2.27;;;5.70;99.90;;;;;;5030752;28;20410;-54
2022/12/27 07:02:28;;;;;;;9.77;2.23;;;5.70;99.90;;;;;;5031239;28;20412;-54
2022/12/27 07:04:55;;;;;;;10.50;2.90;;;5.40;99.90;;;;;;5031316;28;20437;-55
2022/12/27 07:07:21;;;;;;;9.70;2.40;;;5.60;99.90;;;;;;5031275;28;20412;-54
2022/12/27 07:09:48;;;;;;;7.87;2.50;;;5.70;99.90;;;;;;5030318;28;21003;-54
2022/12/27 07:12:16;;;;;;;5.70;2.10;;;5.40;99.90;;;;;;5031139;28;20407;-54
2022/12/27 07:14:42;;;;;;;4.67;2.30;;;5.40;99.90;;;;;;5031129;28;20412;-54
2022/12/27 07:17:09;;;;;;;6.27;2.20;;;4.90;99.90;;;;;;5031117;28;20791;-53
2022/12/27 07:19:36;;;;;;;8.67;2.60;;;4.80;99.90;;;;;;5030510;28;20446;-53
2022/12/27 07:22:02;;;;;;;12.17;2.57;;;5.40;99.90;;;;;;5030834;28;20414;-53
2022/12/27 07:24:31;;;;;;;8.93;2.13;;;5.50;99.90;;;;;;5031014;28;20433;-54
2022/12/27 07:26:57;;;;;;;9.37;3.10;;;5.60;99.90;;;;;;5030931;28;20815;-53
2022/12/27 07:29:26;;;;;;;6.70;2.33;;;5.60;99.90;;;;;;5030173;28;20528;-53
2022/12/27 07:31:53;;;;;;;7.03;2.13;;;5.40;99.90;;;;;;5031027;28;20416;-53
2022/12/27 07:34:20;;;;;;;11.37;3.40;;;5.50;99.90;;;;;;5030894;28;20509;-54
2022/12/27 07:36:47;;;;;;;7.67;2.10;;;5.70;99.90;;;;;;5031192;28;20420;-53
2022/12/27 07:39:14;;;;;;;6.90;2.00;;;5.20;99.90;;;;;;5030070;28;20427;-55
2022/12/27 07:41:41;;;;;;;9.83;2.67;;;5.30;99.90;;;;;;5030952;28;20927;-54
2022/12/27 07:44:09;;;;;;;8.80;2.60;;;5.90;99.90;;;;;;5030567;28;20407;-53
2022/12/27 07:46:37;;;;;;;16.50;2.80;;;5.40;99.90;;;;;;5029898;28;20452;-54
2022/12/27 07:49:04;;;;;;;6.57;2.70;;;5.70;99.90;;;;;;5033946;28;20462;-54
2022/12/27 07:51:30;;;;;;;5.83;2.30;;;5.80;99.90;;;;;;5034634;28;20852;-53
2022/12/27 07:53:57;;;;;;;7.63;2.73;;;5.30;99.90;;;;;;5034497;28;20423;-54
2022/12/27 07:56:28;;;;;;;9.80;2.67;;;5.90;99.90;;;;;;5034413;28;20415;-54
2022/12/27 07:58:56;;;;;;;10.17;2.90;;;6.10;99.90;;;;;;5033836;28;20989;-53
2022/12/27 08:01:25;;;;;;;4.90;2.27;;;6.00;99.90;;;;;;5034001;28;20415;-53
2022/12/27 08:03:54;;;;;;;5.67;2.30;;;6.60;99.90;;;;;;5034584;28;20423;-53
2022/12/27 08:06:24;;;;;;;6.20;2.80;;;5.90;99.90;;;;;;5034376;28;20787;-54
2022/12/27 08:08:52;;;;;;;14.90;3.33;;;5.80;99.90;;;;;;5033245;28;21004;-53
2022/12/27 08:11:19;;;;;;;7.47;2.20;;;6.30;99.90;;;;;;5034236;28;20445;-54
2022/12/27 08:13:46;;;;;;;8.23;2.60;;;6.40;99.90;;;;;;5033846;28;20747;-53
2022/12/27 08:16:17;;;;;;;6.97;1.97;;;6.20;99.90;;;;;;5034146;28;20437;-53
2022/12/27 08:18:44;;;;;;;5.70;2.63;;;6.40;99.90;;;;;;5033458;28;20485;-54
2022/12/27 08:21:13;;;;;;;8.67;3.47;;;6.20;99.90;;;;;;5034120;28;21163;-54
2022/12/27 08:23:40;;;;;;;3.90;2.53;;;6.00;99.90;;;;;;5032364;28;20456;-53
2022/12/27 08:26:07;;;;;;;8.30;3.43;;;6.10;99.90;;;;;;5034032;28;20420;-54
2022/12/27 08:28:33;;;;;;;5.80;2.83;;;6.20;99.90;;;;;;5033000;28;20436;-54
2022/12/27 08:31:00;;;;;;;8.50;2.67;;;6.10;99.90;;;;;;5032266;28;20422;-55
2022/12/27 08:33:28;;;;;;;8.40;2.37;;;6.00;99.90;;;;;;5033571;28;20503;-54
2022/12/27 08:35:55;;;;;;;9.63;3.77;;;6.00;99.90;;;;;;5033551;28;20432;-54
2022/12/27 08:38:24;;;;;;;8.07;3.53;;;6.60;99.90;;;;;;5033649;28;20455;-55
2022/12/27 08:40:51;;;;;;;12.03;3.93;;;6.40;99.90;;;;;;5033536;28;20428;-54
2022/12/27 08:43:17;;;;;;;13.13;3.73;;;6.60;99.90;;;;;;5032334;28;20450;-53
2022/12/27 08:45:44;;;;;;;9.43;4.03;;;6.40;99.90;;;;;;5033861;28;20745;-53
2022/12/27 08:48:11;;;;;;;9.70;3.10;;;6.50;99.90;;;;;;5033518;28;20960;-53
2022/12/27 08:50:37;;;;;;;7.53;3.67;;;6.30;99.90;;;;;;5032740;28;20473;-54
2022/12/27 08:53:06;;;;;;;6.83;2.60;;;6.40;99.90;;;;;;5033533;28;20920;-54
2022/12/27 08:55:34;;;;;;;6.50;2.90;;;6.50;99.90;;;;;;5033505;28;20453;-54
2022/12/27 08:58:02;;;;;;;8.73;2.80;;;6.60;99.90;;;;;;5033143;28;20458;-53
2022/12/27 09:00:30;;;;;;;12.60;3.33;;;6.40;99.90;;;;;;5032684;28;20434;-54
2022/12/27 09:02:57;;;;;;;9.03;3.50;;;6.00;99.90;;;;;;5033479;28;20430;-54
2022/12/27 09:05:25;;;;;;;7.00;2.70;;;6.70;99.90;;;;;;5033200;28;20421;-54
2022/12/27 09:07:51;;;;;;;4.87;2.53;;;6.60;99.90;;;;;;5031687;28;20472;-54
2022/12/27 09:10:19;;;;;;;13.57;4.77;;;6.10;99.90;;;;;;5032558;28;20572;-53
2022/12/27 09:12:47;;;;;;;18.60;3.50;;;6.80;99.90;;;;;;5033153;28;20430;-54
2022/12/27 09:15:14;;;;;;;5.30;2.87;;;6.80;99.90;;;;;;5033071;28;20537;-53
2022/12/27 09:17:41;;;;;;;4.63;2.90;;;6.70;99.90;;;;;;5031814;28;20470;-53
2022/12/27 09:20:11;;;;;;;8.90;2.90;;;6.60;99.90;;;;;;5032281;28;20435;-53
2022/12/27 09:22:37;;;;;;;7.77;3.40;;;6.60;99.90;;;;;;5032858;28;20431;-53
2022/12/27 09:25:05;;;;;;;6.10;3.20;;;7.10;99.90;;;;;;5031584;28;20453;-53
2022/12/27 09:27:33;;;;;;;10.00;3.40;;;7.00;99.90;;;;;;5031294;28;20449;-54
2022/12/27 09:30:01;;;;;;;5.87;2.90;;;6.90;99.90;;;;;;5031949;28;20481;-54
2022/12/27 09:32:28;;;;;;;12.10;3.83;;;6.60;99.90;;;;;;5032927;28;20581;-53
2022/12/27 09:34:55;;;;;;;6.57;3.07;;;7.20;99.90;;;;;;5032851;28;20441;-54
2022/12/27 09:37:21;;;;;;;19.60;3.47;;;7.10;99.90;;;;;;5032653;28;20441;-53
2022/12/27 09:39:48;;;;;;;12.77;3.80;;;6.40;99.90;;;;;;5032442;28;20454;-52
2022/12/27 09:42:27;;;;;;;7.60;3.87;;;7.10;99.90;;;;;;5032352;28;20924;-53
2022/12/27 09:44:58;;;;;;;6.70;3.37;;;6.80;99.90;;;;;;5032486;28;20446;-52
2022/12/27 09:47:30;;;;;;;5.90;3.60;;;7.00;99.90;;;;;;5032622;28;20404;-53
2022/12/27 09:50:02;;;;;;;9.57;3.47;;;6.60;99.90;;;;;;5031970;28;20947;-53
2022/12/27 09:52:35;;;;;;;8.40;4.20;;;6.90;99.90;;;;;;5032512;28;20438;-53
2022/12/27 09:55:05;;;;;;;7.33;3.40;;;7.10;99.90;;;;;;5032245;28;20442;-53
2022/12/27 09:57:37;;;;;;;11.57;3.63;;;7.40;99.90;;;;;;5032381;28;20425;-54
2022/12/27 10:00:07;;;;;;;8.57;3.30;;;7.40;99.90;;;;;;5031730;28;20439;-53
2022/12/27 10:02:35;;;;;;;12.43;3.53;;;7.40;99.90;;;;;;5032450;28;20423;-53
2022/12/27 10:05:03;;;;;;;10.40;3.53;;;7.50;99.90;;;;;;5032520;28;21022;-52
2022/12/27 10:07:40;;;;;;;12.57;3.57;;;7.50;99.90;;;;;;5032022;28;20417;-53
2022/12/27 10:10:13;;;;;;;5.63;3.30;;;7.60;99.90;;;;;;5031075;28;20479;-53
2022/12/27 10:13:02;;;;;;;7.03;3.00;;;7.00;99.90;;;;;;5032435;28;20437;-54
2022/12/27 10:15:36;;;;;;;12.50;3.63;;;7.60;99.90;;;;;;5032101;28;20908;-53
2022/12/27 10:18:17;;;;;;;7.33;3.30;;;7.70;99.90;;;;;;5031827;28;20978;-54
2022/12/27 10:20:58;;;;;;;6.70;3.10;;;7.50;99.90;;;;;;5029742;28;20440;-54
2022/12/27 10:23:28;;;;;;;8.10;3.53;;;7.50;99.90;;;;;;5031744;28;20410;-54
2022/12/27 10:25:58;;;;;;;8.23;3.00;;;7.70;99.90;;;;;;5032159;28;20891;-53
2022/12/27 10:28:33;;;;;;;7.47;2.80;;;7.60;99.90;;;;;;5031252;28;20451;-53
2022/12/27 10:31:02;;;;;;;7.23;3.60;;;7.60;99.90;;;;;;5031239;28;20852;-53
2022/12/27 10:33:32;;;;;;;5.40;3.10;;;7.70;99.90;;;;;;5031623;28;20440;-53
2022/12/27 10:36:01;;;;;;;6.60;2.73;;;7.60;99.90;;;;;;5031423;28;20485;-53
2022/12/27 10:38:33;;;;;;;9.67;3.80;;;8.00;99.90;;;;;;5031127;28;20865;-54
2022/12/27 10:41:16;;;;;;;12.63;3.10;;;7.80;99.90;;;;;;5031647;28;20427;-54
2022/12/27 10:43:45;;;;;;;7.10;3.60;;;7.90;99.90;;;;;;5031262;28;20429;-54
2022/12/27 10:46:14;;;;;;;9.23;3.87;;;7.80;99.90;;;;;;5031476;28;20412;-54
2022/12/27 10:48:53;;;;;;;9.00;3.10;;;7.50;99.90;;;;;;5030622;28;20534;-54
2022/12/27 10:51:22;;;;;;;10.30;4.00;;;8.30;99.90;;;;;;5030928;28;20479;-54
2022/12/27 10:54:01;;;;;;;8.10;3.20;;;8.10;99.90;;;;;;5030890;28;20432;-54
2022/12/27 10:56:30;;;;;;;9.70;3.80;;;7.70;99.90;;;;;;5031275;28;20824;-54
2022/12/27 10:59:11;;;;;;;8.10;4.30;;;8.10;99.90;;;;;;5030053;28;20959;-54
2022/12/27 11:01:38;;;;;;;12.13;3.40;;;8.10;99.90;;;;;;5031325;28;20529;-54
2022/12/27 11:04:12;;;;;;;13.70;5.30;;;8.00;99.90;;;;;;5031110;28;20434;-54
2022/12/27 11:06:40;;;;;;;8.83;3.83;;;8.20;99.90;;;;;;5031355;28;20417;-54
2022/12/27 11:09:28;;;;;;;7.00;3.40;;;8.30;99.90;;;;;;5030283;28;20437;-54
2022/12/27 11:12:13;;;;;;;9.13;3.83;;;8.00;99.90;;;;;;5031094;28;20434;-54
2022/12/27 11:14:43;;;;;;;8.70;4.33;;;8.10;99.90;;;;;;5031038;28;20431;-54
2022/12/27 11:17:10;;;;;;;10.43;3.80;;;8.30;99.90;;;;;;5030884;28;20464;-54
2022/12/27 11:19:44;;;;;;;12.10;4.20;;;8.20;99.90;;;;;;5030098;28;20467;-54
2022/12/27 11:22:10;;;;;;;5.43;4.20;;;8.10;99.90;;;;;;5034172;28;20446;-54
2022/12/27 11:24:38;;;;;;;7.87;3.30;;;8.00;99.90;;;;;;5035057;28;20464;-54
2022/12/27 11:27:05;;;;;;;8.60;3.77;;;8.10;99.90;;;;;;5034935;28;20438;-53
2022/12/27 11:29:32;;;;;;;8.60;3.03;;;7.80;99.90;;;;;;5034337;28;20797;-54
2022/12/27 11:32:06;;;;;;;10.07;3.87;;;7.80;99.90;;;;;;5035011;28;20826;-54
2022/12/27 11:34:36;;;;;;;8.90;4.30;;;8.30;99.90;;;;;;5034729;28;20446;-54
2022/12/27 11:37:09;;;;;;;9.10;3.70;;;8.20;99.90;;;;;;5034695;28;20431;-54
2022/12/27 11:39:44;;;;;;;16.33;3.60;;;8.40;99.90;;;;;;5034130;28;20466;-53
2022/12/27 11:42:19;;;;;;;6.30;4.07;;;8.20;99.90;;;;;;5033129;28;20446;-53
2022/12/27 11:44:54;;;;;;;12.33;3.90;;;8.10;99.90;;;;;;5034870;28;20493;-53
2022/12/27 11:47:31;;;;;;;9.50;3.73;;;8.20;99.90;;;;;;5034800;28;20442;-53
2022/12/27 11:50:14;;;;;;;6.77;3.00;;;8.30;99.90;;;;;;5034031;28;20541;-53
2022/12/27 11:52:58;;;;;;;8.00;3.40;;;8.10;99.90;;;;;;5033188;28;20421;-53
2022/12/27 11:55:52;;;;;;;13.13;4.10;;;8.10;99.90;;;;;;5034338;28;20443;-54
2022/12/27 11:58:50;;;;;;;7.43;3.73;;;8.40;99.90;;;;;;5034430;28;20853;-54
2022/12/27 12:02:09;;;;;;;7.40;3.87;;;8.20;99.90;;;;;;5034347;28;20518;-54
2022/12/27 12:05:26;;;;;;;10.63;4.50;;;8.40;99.90;;;;;;5034117;28;20427;-54
2022/12/27 12:08:22;;;;;;;8.20;3.57;;;8.40;99.90;;;;;;5034273;28;20455;-54
2022/12/27 12:10:55;;;;;;;8.60;3.80;;;8.40;99.90;;;;;;5033674;28;20944;-53
2022/12/27 12:13:51;;;;;;;9.50;3.50;;;8.10;99.90;;;;;;5034098;28;20493;-52
2022/12/27 12:16:38;;;;;;;8.27;3.90;;;8.00;99.90;;;;;;5021515;28;20490;-54
2022/12/27 12:19:19;;;;;;;9.03;3.70;;;8.30;99.90;;;;;;5032909;28;20927;-53
2022/12/27 12:21:53;;;;;;;11.13;3.60;;;7.90;99.90;;;;;;5033967;28;20431;-54
2022/12/27 12:24:43;;;;;;;10.17;4.17;;;8.10;99.90;;;;;;5034019;28;20435;-54
2022/12/27 12:27:26;;;;;;;11.17;3.87;;;8.20;99.90;;;;;;5032536;28;20486;-52
2022/12/27 12:30:29;;;;;;;10.50;3.20;;;8.20;99.90;;;;;;5032029;28;20545;-53
2022/12/27 12:33:16;;;;;;;11.27;3.77;;;8.30;99.90;;;;;;5027616;28;20875;-54
2022/12/27 12:35:56;;;;;;;11.80;4.10;;;8.30;99.90;;;;;;5033684;28;20443;-54
2022/12/27 12:38:30;;;;;;;6.63;3.37;;;8.30;99.90;;;;;;5011918;28;20476;-54
2022/12/27 12:41:21;;;;;;;8.53;3.50;;;8.00;99.90;;;;;;5030100;28;20443;-52
2022/12/27 12:44:23;;;;;;;10.30;4.07;;;8.20;99.90;;;;;;5028482;28;20551;-54
2022/12/27 12:46:57;;;;;;;9.85;4.13;;;8.40;99.90;;;;;;5012602;28;20811;-53
2022/12/27 12:49:57;;;;;;;12.87;3.53;;;8.10;99.90;;;;;;5012991;28;20712;-52
2022/12/27 12:52:50;;;;;;;6.37;3.07;;;8.80;99.90;;;;;;5013217;28;20933;-52
2022/12/27 12:55:39;;;;;;;7.97;4.37;;;8.60;99.90;;;;;;5013519;28;20447;-53
2022/12/27 12:58:32;;;;;;;10.90;4.00;;;8.40;99.90;;;;;;5005887;28;20508;-52
2022/12/27 13:01:24;;;;;;;9.03;4.10;;;8.80;99.90;;;;;;5028557;28;20421;-52
2022/12/27 13:04:08;;;;;;;10.90;3.20;;;8.60;99.90;;;;;;5013850;28;20787;-52
2022/12/27 13:06:51;;;;;;;9.83;3.37;;;8.20;99.90;;;;;;5013433;28;20739;-53
2022/12/27 13:09:27;;;;;;;9.63;3.70;;;8.80;99.90;;;;;;5012633;28;20815;-53
2022/12/27 13:12:02;;;;;;;11.60;4.03;;;8.50;99.90;;;;;;5012870;28;20531;-53
2022/12/27 13:14:54;;;;;;;7.90;3.97;;;8.80;99.90;;;;;;5013452;28;20447;-54
2022/12/27 13:17:28;;;;;;;21.93;4.57;;;8.40;99.90;;;;;;5013117;28;20440;-53
2022/12/27 13:20:05;;;;;;;9.50;3.30;;;8.50;99.90;;;;;;5012570;28;20417;-54
2022/12/27 13:22:45;;;;;;;16.37;4.40;;;8.40;99.90;;;;;;5013099;28;20902;-54
2022/12/27 13:25:24;;;;;;;11.00;3.60;;;8.50;99.90;;;;;;5012116;28;20666;-53
2022/12/27 13:27:56;;;;;;;10.50;3.90;;;8.50;99.90;;;;;;5025419;28;20445;-53
2022/12/27 13:30:29;;;;;;;8.63;4.13;;;8.70;99.90;;;;;;5032044;28;20996;-52
2022/12/27 13:33:06;;;;;;;7.83;3.07;;;8.20;99.90;;;;;;5032610;28;20458;-53
2022/12/27 13:35:47;;;;;;;13.30;3.60;;;8.50;99.90;;;;;;5032620;28;20431;-53
2022/12/27 13:38:30;;;;;;;6.87;3.60;;;8.50;99.90;;;;;;5032516;28;20466;-53
2022/12/27 13:41:10;;;;;;;9.57;3.47;;;8.40;99.90;;;;;;5032599;28;20427;-52
2022/12/27 13:43:50;;;;;;;10.93;4.87;;;8.30;99.90;;;;;;5032108;28;20815;-51
2022/12/27 13:46:41;;;;;;;9.47;3.40;;;8.40;99.90;;;;;;5030208;28;20532;-53
2022/12/27 13:49:25;;;;;;;7.23;2.60;;;8.20;99.90;;;;;;5031348;28;20522;-54
2022/12/27 13:51:56;;;;;;;10.37;3.13;;;7.80;99.90;;;;;;5032576;28;20597;-55
2022/12/27 13:54:57;;;;;;;12.33;3.43;;;8.50;99.90;;;;;;5032774;28;20442;-54
2022/12/27 13:57:50;;;;;;;9.30;2.67;;;8.20;99.90;;;;;;5032002;28;20430;-53
2022/12/27 14:00:19;;;;;;;8.27;2.93;;;7.60;99.90;;;;;;5031381;28;20925;-53
2022/12/27 14:03:20;;;;;;;9.70;4.63;;;8.20;99.90;;;;;;5031970;28;20481;-55
2022/12/27 14:06:21;;;;;;;8.50;3.33;;;8.10;99.90;;;;;;5032508;28;20432;-54
2022/12/27 14:09:16;;;;;;;14.57;4.20;;;8.30;99.90;;;;;;5031202;28;20429;-54
2022/12/27 14:11:56;;;;;;;11.87;3.93;;;8.10;99.90;;;;;;5032065;28;20486;-54
2022/12/27 14:14:26;;;;;;;12.23;3.87;;;8.50;99.90;;;;;;5031861;28;20446;-54
2022/12/27 14:17:12;;;;;;;10.23;3.57;;;8.40;99.90;;;;;;5031862;28;20440;-53
2022/12/27 14:20:10;;;;;;;12.47;4.73;;;8.20;99.90;;;;;;5030816;28;20471;-53
2022/12/27 14:22:51;;;;;;;9.13;5.30;;;8.10;99.90;;;;;;5005764;28;20460;-54
2022/12/27 14:26:09;;;;;;;11.33;5.00;;;8.30;99.90;;;;;;5031847;28;20939;-54
2022/12/27 14:28:56;;;;;;;9.83;3.63;;;8.20;99.90;;;;;;5030678;28;20553;-53
2022/12/27 14:31:56;;;;;;;7.03;3.30;;;8.30;99.90;;;;;;5031503;28;20463;-54
2022/12/27 14:35:05;;;;;;;10.87;3.23;;;7.70;99.90;;;;;;5031802;28;20476;-53
2022/12/27 14:38:18;;;;;;;12.37;3.80;;;8.10;99.90;;;;;;5031287;28;20435;-55
2022/12/27 14:41:36;;;;;;;7.97;3.40;;;8.20;99.90;;;;;;5030596;28;20431;-53
2022/12/27 14:44:43;;;;;;;5.80;3.30;;;8.10;99.90;;;;;;5030985;28;20440;-53
2022/12/27 14:47:40;;;;;;;6.67;3.83;;;8.00;99.90;;;;;;5031372;28;20440;-54
2022/12/27 14:50:34;;;;;;;7.93;3.30;;;8.10;99.90;;;;;;5030629;28;20558;-54
2022/12/27 14:53:47;;;;;;;8.43;3.50;;;8.00;99.90;;;;;;5009089;28;20448;-54
2022/12/27 14:56:25;;;;;;;9.17;4.13;;;7.80;99.90;;;;;;5031168;28;20439;-54
2022/12/27 14:59:05;;;;;;;6.57;3.50;;;8.00;99.90;;;;;;5030705;28;20987;-54
2022/12/27 15:01:45;;;;;;;13.07;3.83;;;7.70;99.90;;;;;;5031182;28;20900;-53
2022/12/27 15:04:41;;;;;;;8.07;3.47;;;7.60;99.90;;;;;;5031177;28;20410;-54